createdAt,value
2023-05-05T00:01:15.610Z,3.45
2023-05-05T00:03:47.267Z,3.40
2023-05-05T00:06:14.963Z,4.03
2023-05-05T00:08:42.826Z,3.95
2023-05-05T00:11:10.762Z,2.95
2023-05-05T00:13:39.456Z,3.65
2023-05-05T00:16:07.508Z,4.07
2023-05-05T00:18:37.384Z,3.65
2023-05-05T00:21:06.724Z,3.85
2023-05-05T00:23:34.387Z,3.75
2023-05-05T00:26:02.041Z,3.90
2023-05-05T00:28:29.709Z,4.18
2023-05-05T00:30:57.350Z,3.72
2023-05-05T00:33:26.752Z,3.35
2023-05-05T00:35:54.369Z,4.35
2023-05-05T00:38:23.378Z,3.33
2023-05-05T00:40:50.989Z,3.85
2023-05-05T00:43:18.603Z,3.88
2023-05-05T00:45:47.794Z,3.65
2023-05-05T00:48:18.787Z,3.88
2023-05-05T00:50:46.364Z,3.92
2023-05-05T00:53:14.265Z,4.13
2023-05-05T00:55:43.633Z,4.72
2023-05-05T00:58:13.193Z,2.95
2023-05-05T01:00:41.137Z,3.95
2023-05-05T01:03:09.103Z,4.13
2023-05-05T01:05:47.170Z,3.83
2023-05-05T01:08:27.753Z,3.97
2023-05-05T01:11:03.294Z,3.58
2023-05-05T01:13:42.593Z,3.78
2023-05-05T01:16:15.471Z,3.95
2023-05-05T01:18:51.452Z,3.60
2023-05-05T01:21:27.074Z,3.35
2023-05-05T01:24:39.842Z,3.72
2023-05-05T01:27:39.841Z,3.95
2023-05-05T01:30:21.481Z,4.65
2023-05-05T01:32:55.395Z,4.22
2023-05-05T01:35:29.578Z,3.90
2023-05-05T01:38:03.554Z,3.97
2023-05-05T01:40:38.654Z,3.65
2023-05-05T01:43:08.700Z,4.25
2023-05-05T01:45:39.855Z,3.88
2023-05-05T01:48:10.058Z,3.58
2023-05-05T01:50:38.156Z,3.50
2023-05-05T01:53:08.835Z,4.35
2023-05-05T01:55:38.124Z,4.03
2023-05-05T01:58:07.249Z,3.63
2023-05-05T02:00:35.858Z,3.50
2023-05-05T02:03:05.931Z,4.28
2023-05-05T02:05:37.369Z,5.25
2023-05-05T02:08:07.639Z,4.30
2023-05-05T02:10:35.969Z,4.22
2023-05-05T02:13:05.396Z,4.28
2023-05-05T02:15:33.894Z,3.83
2023-05-05T02:18:03.761Z,4.28
2023-05-05T02:20:32.587Z,4.65
2023-05-05T02:23:01.767Z,3.92
2023-05-05T02:25:36.426Z,3.90
2023-05-05T02:28:05.695Z,3.70
2023-05-05T02:30:36.156Z,4.13
2023-05-05T02:33:07.943Z,4.10
2023-05-05T02:35:40.437Z,4.30
2023-05-05T02:38:14.689Z,4.63
2023-05-05T02:40:44.086Z,4.05
2023-05-05T02:43:16.258Z,4.13
2023-05-05T02:45:44.097Z,3.53
2023-05-05T02:48:12.951Z,4.18
2023-05-05T02:50:40.840Z,4.70
2023-05-05T02:53:09.974Z,4.18
2023-05-05T02:55:42.952Z,3.88
2023-05-05T02:58:19.793Z,3.97
2023-05-05T03:00:54.392Z,4.63
2023-05-05T03:03:31.035Z,4.47
2023-05-05T03:06:06.643Z,4.32
2023-05-05T03:08:42.080Z,4.18
2023-05-05T03:11:19.364Z,4.10
2023-05-05T03:13:51.436Z,4.40
2023-05-05T03:16:19.837Z,4.80
2023-05-05T03:18:49.539Z,4.70
2023-05-05T03:21:17.621Z,4.43
2023-05-05T03:23:47.082Z,4.93
2023-05-05T03:26:18.145Z,4.28
2023-05-05T03:28:45.965Z,4.25
2023-05-05T03:31:14.332Z,4.57
2023-05-05T03:33:42.214Z,4.30
2023-05-05T03:36:12.163Z,3.90
2023-05-05T03:38:39.766Z,3.92
2023-05-05T03:41:09.674Z,4.45
2023-05-05T03:43:39.194Z,4.60
2023-05-05T03:46:06.810Z,4.28
2023-05-05T03:48:34.722Z,4.30
2023-05-05T03:51:02.391Z,4.38
2023-05-05T03:53:30.563Z,4.72
2023-05-05T03:55:58.314Z,5.13
2023-05-05T03:58:27.433Z,4.40
2023-05-05T04:00:55.253Z,4.30
2023-05-05T04:03:23.324Z,4.28
2023-05-05T04:05:51.177Z,4.13
2023-05-05T04:08:18.798Z,5.45
2023-05-05T04:10:46.559Z,3.65
2023-05-05T04:13:14.177Z,4.47
2023-05-05T04:15:46.746Z,4.82
2023-05-05T04:18:14.637Z,4.75
2023-05-05T04:20:42.261Z,4.38
2023-05-05T04:23:09.857Z,5.40
2023-05-05T04:25:37.500Z,4.43
2023-05-05T04:28:05.518Z,5.43
2023-05-05T04:30:33.344Z,4.43
2023-05-05T04:33:02.523Z,4.43
2023-05-05T04:35:30.177Z,4.97
2023-05-05T04:37:57.829Z,4.95
2023-05-05T04:40:26.210Z,4.78
2023-05-05T04:42:53.879Z,4.85
2023-05-05T04:45:21.508Z,4.47
2023-05-05T04:47:49.219Z,5.82
2023-05-05T04:50:18.561Z,5.93
2023-05-05T04:52:46.158Z,5.32
2023-05-05T04:55:13.931Z,4.60
2023-05-05T04:57:41.684Z,4.38
2023-05-05T05:00:10.569Z,5.28
2023-05-05T05:02:38.527Z,4.35
2023-05-05T05:05:07.530Z,4.68
2023-05-05T05:07:36.515Z,5.53
2023-05-05T05:10:04.267Z,5.43
2023-05-05T05:12:31.965Z,5.05
2023-05-05T05:14:59.630Z,5.40
2023-05-05T05:17:27.660Z,4.63
2023-05-05T05:19:56.092Z,5.43
2023-05-05T05:22:23.796Z,5.18
2023-05-05T05:24:53.383Z,4.90
2023-05-05T05:27:20.971Z,4.97
2023-05-05T05:29:48.934Z,4.03
2023-05-05T05:32:16.856Z,5.05
2023-05-05T05:34:44.594Z,5.20
2023-05-05T05:37:12.475Z,5.65
2023-05-05T05:39:41.992Z,4.40
2023-05-05T05:42:12.385Z,5.03
2023-05-05T05:44:40.001Z,5.40
2023-05-05T05:47:07.610Z,5.45
2023-05-05T05:49:35.234Z,5.25
2023-05-05T05:52:02.952Z,5.63
2023-05-05T05:54:32.123Z,4.13
2023-05-05T05:56:59.790Z,5.53
2023-05-05T05:59:28.748Z,5.53
2023-05-05T06:01:56.702Z,5.40
2023-05-05T06:04:24.487Z,5.53
2023-05-05T06:06:52.190Z,5.45
2023-05-05T06:09:19.832Z,4.85
2023-05-05T06:11:47.550Z,5.15
2023-05-05T06:14:17.063Z,6.20
2023-05-05T06:16:47.056Z,4.90
2023-05-05T06:19:14.698Z,5.28
2023-05-05T06:21:42.512Z,6.53
2023-05-05T06:24:10.421Z,5.18
2023-05-05T06:26:37.995Z,5.60
2023-05-05T06:29:05.618Z,5.72
2023-05-05T06:31:33.388Z,5.55
2023-05-05T06:34:02.832Z,5.13
2023-05-05T06:36:31.925Z,4.80
2023-05-05T06:38:59.527Z,6.07
2023-05-05T06:41:27.133Z,5.82
2023-05-05T06:43:56.640Z,4.60
2023-05-05T06:46:24.515Z,5.78
2023-05-05T06:48:52.212Z,5.30
2023-05-05T06:51:28.939Z,6.38
2023-05-05T06:53:56.856Z,7.18
2023-05-05T06:56:24.494Z,4.88
2023-05-05T06:58:52.386Z,4.63
2023-05-05T07:01:20.339Z,6.40
2023-05-05T07:03:48.154Z,6.30
2023-05-05T07:06:15.806Z,6.43
2023-05-05T07:08:47.181Z,5.15
2023-05-05T07:11:16.047Z,5.20
2023-05-05T07:13:43.698Z,6.60
2023-05-05T07:16:11.421Z,5.82
2023-05-05T07:18:39.303Z,6.38
2023-05-05T07:21:07.282Z,6.32
2023-05-05T07:23:35.063Z,6.38
2023-05-05T07:26:04.215Z,5.97
2023-05-05T07:28:31.888Z,5.75
2023-05-05T07:30:59.505Z,5.40
2023-05-05T07:33:27.588Z,5.80
2023-05-05T07:35:55.655Z,6.03
2023-05-05T07:38:23.285Z,6.55
2023-05-05T07:40:50.902Z,5.18
2023-05-05T07:43:20.146Z,5.38
2023-05-05T07:45:47.798Z,6.35
2023-05-05T07:48:15.527Z,6.00
2023-05-05T07:50:43.282Z,5.30
2023-05-05T07:53:14.948Z,4.97
2023-05-05T07:55:43.052Z,4.53
2023-05-05T07:58:11.559Z,5.00
2023-05-05T08:00:40.856Z,5.40
2023-05-05T08:03:11.677Z,5.32
2023-05-05T08:05:40.609Z,5.28
2023-05-05T08:08:08.625Z,5.63
2023-05-05T08:10:36.453Z,5.47
2023-05-05T08:13:04.108Z,6.03
2023-05-05T08:15:31.757Z,6.03
2023-05-05T08:18:01.570Z,5.28
2023-05-05T08:20:30.202Z,6.18
2023-05-05T08:22:57.871Z,5.10
2023-05-05T08:25:27.381Z,5.50
2023-05-05T08:27:55.084Z,6.75
2023-05-05T08:30:22.996Z,6.35
2023-05-05T08:32:50.680Z,5.35
2023-05-05T08:35:19.753Z,5.22
2023-05-05T08:37:47.364Z,6.45
2023-05-05T08:40:15.594Z,5.13
2023-05-05T08:42:44.530Z,5.13
2023-05-05T08:45:14.649Z,6.25
2023-05-05T08:47:43.298Z,5.20
2023-05-05T08:50:12.266Z,5.60
2023-05-05T08:52:44.692Z,5.63
2023-05-05T08:55:24.042Z,5.47
2023-05-05T08:57:54.514Z,6.00
2023-05-05T09:00:23.276Z,5.85
2023-05-05T09:02:51.258Z,5.07
2023-05-05T09:05:19.234Z,6.40
2023-05-05T09:07:48.869Z,6.35
2023-05-05T09:10:16.678Z,4.75
2023-05-05T09:12:44.773Z,5.78
2023-05-05T09:15:14.482Z,6.25
2023-05-05T09:17:43.048Z,5.93
2023-05-05T09:20:12.470Z,6.88
2023-05-05T09:22:41.321Z,7.15
2023-05-05T09:25:12.787Z,7.15
2023-05-05T09:27:42.585Z,5.80
2023-05-05T09:30:13.815Z,8.30
2023-05-05T09:32:46.642Z,6.35
2023-05-05T09:35:14.607Z,6.90
2023-05-05T09:37:42.779Z,7.10
2023-05-05T09:40:15.315Z,7.10
2023-05-05T09:42:44.186Z,5.72
2023-05-05T09:45:27.544Z,6.45
2023-05-05T09:47:59.522Z,7.15
2023-05-05T09:50:30.464Z,7.03
2023-05-05T09:52:59.828Z,5.80
2023-05-05T09:55:30.761Z,6.05
2023-05-05T09:57:58.461Z,6.40
2023-05-05T10:00:38.963Z,6.60
2023-05-05T10:03:07.932Z,6.13
2023-05-05T10:05:48.841Z,5.10
2023-05-05T10:08:16.927Z,7.30
2023-05-05T10:10:51.460Z,3.95
2023-05-05T10:13:21.422Z,6.28
2023-05-05T10:15:51.268Z,5.72
2023-05-05T10:18:22.850Z,6.47
2023-05-05T10:20:56.808Z,6.63
2023-05-05T10:23:26.786Z,5.60
2023-05-05T10:26:02.786Z,6.57
2023-05-05T10:28:34.169Z,7.07
2023-05-05T10:31:12.801Z,5.78
2023-05-05T10:33:54.330Z,5.82
2023-05-05T10:36:23.370Z,6.53
2023-05-05T10:38:55.638Z,5.55
2023-05-05T10:41:25.799Z,6.57
2023-05-05T10:43:56.127Z,5.97
2023-05-05T10:46:25.041Z,7.53
2023-05-05T10:49:03.641Z,7.45
2023-05-05T10:51:41.470Z,6.85
2023-05-05T10:54:15.090Z,5.63
2023-05-05T10:56:44.331Z,5.10
2023-05-05T10:59:40.427Z,5.60
2023-05-05T11:02:22.062Z,4.97
2023-05-05T11:05:14.914Z,6.57
2023-05-05T11:07:43.210Z,5.30
2023-05-05T11:10:13.121Z,6.53
2023-05-05T11:13:25.434Z,6.88
2023-05-05T11:15:55.414Z,7.38
2023-05-05T11:18:31.313Z,7.78
2023-05-05T11:21:16.355Z,6.53
2023-05-05T11:23:48.863Z,6.70
2023-05-05T11:26:19.417Z,6.70
2023-05-05T11:29:05.780Z,6.10
2023-05-05T11:31:35.055Z,6.68
2023-05-05T11:34:29.051Z,7.50
2023-05-05T11:37:01.100Z,6.20
2023-05-05T11:39:37.553Z,4.78
2023-05-05T11:42:18.644Z,5.65
2023-05-05T11:44:46.653Z,6.72
2023-05-05T11:47:32.373Z,5.63
2023-05-05T11:50:17.243Z,6.57
2023-05-05T11:52:45.261Z,6.95
2023-05-05T11:55:12.988Z,7.55
2023-05-05T11:57:40.772Z,6.03
2023-05-05T12:00:09.933Z,7.43
2023-05-05T12:02:39.378Z,5.95
2023-05-05T12:05:07.896Z,7.53
2023-05-05T12:07:36.082Z,5.80
2023-05-05T12:10:03.812Z,5.95
2023-05-05T12:12:36.804Z,6.63
2023-05-05T12:15:06.301Z,6.38
2023-05-05T12:17:40.900Z,7.15
2023-05-05T12:20:10.666Z,6.53
2023-05-05T12:22:39.191Z,8.82
2023-05-05T12:25:08.961Z,4.95
2023-05-05T12:27:37.000Z,9.88
2023-05-05T12:30:16.192Z,6.18
2023-05-05T12:32:46.284Z,5.50
2023-05-05T12:35:15.866Z,6.53
2023-05-05T12:37:44.162Z,6.13
2023-05-05T12:40:48.764Z,5.40
2023-05-05T12:43:31.023Z,5.43
2023-05-05T12:46:07.291Z,7.03
2023-05-05T12:48:37.898Z,7.10
2023-05-05T12:51:17.666Z,6.60
2023-05-05T12:53:46.088Z,5.38
2023-05-05T12:56:33.452Z,6.07
2023-05-05T12:59:01.887Z,6.25
2023-05-05T13:01:29.830Z,6.00
2023-05-05T13:04:13.856Z,6.82
2023-05-05T13:06:43.244Z,7.78
2023-05-05T13:09:28.822Z,5.80
2023-05-05T13:11:57.878Z,7.82
2023-05-05T13:14:25.619Z,6.93
2023-05-05T13:16:54.012Z,6.50
2023-05-05T13:19:24.928Z,6.13
2023-05-05T13:21:52.854Z,5.18
2023-05-05T13:24:31.146Z,5.53
2023-05-05T13:27:06.240Z,6.47
2023-05-05T13:29:36.927Z,6.55
2023-05-05T13:32:04.714Z,6.88
2023-05-05T13:34:34.135Z,6.07
2023-05-05T13:37:01.935Z,6.63
2023-05-05T13:39:29.710Z,6.53
2023-05-05T13:41:57.354Z,5.22
2023-05-05T13:44:25.010Z,4.88
2023-05-05T13:46:53.143Z,5.60
2023-05-05T13:49:20.940Z,5.20
2023-05-05T13:51:50.252Z,5.95
2023-05-05T13:54:17.956Z,6.18
2023-05-05T13:56:45.886Z,5.22
2023-05-05T13:59:13.675Z,5.05
2023-05-05T14:01:41.716Z,5.15
2023-05-05T14:04:09.519Z,5.57
2023-05-05T14:06:37.358Z,6.47
2023-05-05T14:09:07.875Z,6.18
2023-05-05T14:11:35.610Z,6.65
2023-05-05T14:14:03.668Z,6.43
2023-05-05T14:16:31.365Z,5.70
2023-05-05T14:18:59.115Z,5.88
2023-05-05T14:21:27.482Z,5.97
2023-05-05T14:23:55.349Z,6.57
2023-05-05T14:26:24.412Z,7.05
2023-05-05T14:28:52.070Z,7.25
2023-05-05T14:31:19.857Z,6.05
2023-05-05T14:33:47.758Z,6.47
2023-05-05T14:36:15.466Z,6.00
2023-05-05T14:38:43.467Z,6.35
2023-05-05T14:41:11.676Z,7.25
2023-05-05T14:43:40.934Z,6.88
2023-05-05T14:46:08.665Z,6.47
2023-05-05T14:48:36.448Z,7.07
2023-05-05T14:51:04.549Z,5.93
2023-05-05T14:53:32.331Z,4.00
2023-05-05T14:56:02.101Z,4.20
2023-05-05T14:58:30.938Z,5.45
2023-05-05T15:01:00.467Z,5.85
2023-05-05T15:03:28.331Z,5.63
2023-05-05T15:05:56.215Z,5.82
2023-05-05T15:08:23.910Z,5.60
2023-05-05T15:10:51.853Z,5.65
2023-05-05T15:13:19.550Z,4.90
2023-05-05T15:15:48.355Z,3.83
2023-05-05T15:18:18.534Z,4.53
2023-05-05T15:20:55.916Z,4.38
2023-05-05T15:23:23.630Z,4.00
2023-05-05T15:25:51.388Z,4.70
2023-05-05T15:28:19.290Z,4.75
2023-05-05T15:30:47.302Z,4.53
2023-05-05T15:33:14.975Z,4.47
2023-05-05T15:35:46.284Z,4.72
2023-05-05T15:38:14.819Z,5.30
2023-05-05T15:40:47.755Z,4.95
2023-05-05T15:43:18.624Z,5.43
2023-05-05T15:45:46.434Z,5.25
2023-05-05T15:48:14.153Z,5.22
2023-05-05T15:50:41.758Z,5.97
2023-05-05T15:53:10.742Z,6.15
2023-05-05T15:55:39.113Z,5.60
2023-05-05T15:58:06.902Z,6.57
2023-05-05T16:00:34.646Z,6.75
2023-05-05T16:03:02.484Z,5.97
2023-05-05T16:05:30.261Z,6.07
2023-05-05T16:07:57.929Z,5.60
2023-05-05T16:10:27.667Z,6.60
2023-05-05T16:12:55.530Z,6.30
2023-05-05T16:15:23.614Z,5.65
2023-05-05T16:17:51.400Z,7.47
2023-05-05T16:20:19.369Z,6.75
2023-05-05T16:22:47.019Z,7.07
2023-05-05T16:25:17.387Z,7.40
2023-05-05T16:27:46.451Z,6.97
2023-05-05T16:30:15.480Z,7.85
2023-05-05T16:32:43.414Z,8.85
2023-05-05T16:35:12.065Z,9.75
2023-05-05T16:37:39.748Z,8.82
2023-05-05T16:40:08.574Z,9.38
2023-05-05T16:42:36.127Z,8.70
2023-05-05T16:45:06.781Z,7.90
2023-05-05T16:47:36.361Z,8.30
2023-05-05T16:50:08.423Z,7.55
2023-05-05T16:52:37.188Z,8.48
2023-05-05T16:55:05.543Z,7.22
2023-05-05T16:57:33.127Z,7.07
2023-05-05T17:00:00.775Z,5.78
2023-05-05T17:02:29.796Z,5.78
2023-05-05T17:04:57.440Z,6.45
2023-05-05T17:07:25.345Z,5.65
2023-05-05T17:09:53.035Z,5.05
2023-05-05T17:12:20.680Z,4.80
2023-05-05T17:14:48.253Z,5.53
2023-05-05T17:17:16.015Z,7.30
2023-05-05T17:19:45.263Z,4.35
2023-05-05T17:22:12.914Z,3.40
2023-05-05T17:24:41.658Z,2.40
2023-05-05T17:27:09.283Z,2.70
2023-05-05T17:29:40.810Z,2.55
2023-05-05T17:32:08.573Z,2.80
2023-05-05T17:34:36.421Z,2.40
2023-05-05T17:37:05.619Z,3.28
2023-05-05T17:39:33.746Z,4.03
2023-05-05T17:42:01.505Z,3.10
2023-05-05T17:44:29.187Z,3.97
2023-05-05T17:46:56.751Z,4.25
2023-05-05T17:49:25.278Z,3.85
2023-05-05T17:51:53.019Z,4.13
2023-05-05T17:54:21.987Z,3.58
2023-05-05T17:56:49.617Z,3.10
2023-05-05T17:59:17.253Z,3.60
2023-05-05T18:01:44.930Z,2.58
2023-05-05T18:04:12.610Z,2.13
2023-05-05T18:06:40.698Z,2.47
2023-05-05T18:09:10.420Z,2.63
2023-05-05T18:11:40.029Z,2.92
2023-05-05T18:14:07.660Z,2.67
2023-05-05T18:16:36.038Z,2.60
2023-05-05T18:19:03.796Z,3.20
2023-05-05T18:21:31.989Z,2.55
2023-05-05T18:24:11.589Z,2.45
2023-05-05T18:26:50.589Z,2.88
2023-05-05T18:29:18.698Z,3.10
2023-05-05T18:31:48.236Z,2.63
2023-05-05T18:34:16.975Z,3.95
2023-05-05T18:36:44.617Z,3.78
2023-05-05T18:39:12.528Z,3.35
2023-05-05T18:41:41.087Z,3.03
2023-05-05T18:44:11.180Z,2.85
2023-05-05T18:46:38.850Z,3.17
2023-05-05T18:49:06.909Z,2.15
2023-05-05T18:51:34.541Z,3.03
2023-05-05T18:54:02.309Z,2.80
2023-05-05T18:56:30.806Z,2.25
2023-05-05T18:58:58.576Z,3.05
2023-05-05T19:01:31.069Z,2.60
2023-05-05T19:03:59.087Z,2.75
2023-05-05T19:06:27.178Z,2.78
2023-05-05T19:08:56.808Z,3.92
2023-05-05T19:11:24.635Z,2.78
2023-05-05T19:13:52.417Z,3.70
2023-05-05T19:16:20.359Z,3.50
2023-05-05T19:18:50.626Z,4.00
2023-05-05T19:21:18.168Z,4.47
2023-05-05T19:23:46.740Z,3.97
2023-05-05T19:26:15.236Z,4.45
2023-05-05T19:28:42.849Z,4.18
2023-05-05T19:31:11.272Z,5.30
2023-05-05T19:33:45.337Z,3.85
2023-05-05T19:36:14.588Z,4.53
2023-05-05T19:38:44.312Z,5.30
2023-05-05T19:41:12.331Z,3.75
2023-05-05T19:43:41.959Z,4.43
2023-05-05T19:46:10.538Z,4.50
2023-05-05T19:48:41.910Z,3.78
2023-05-05T19:51:10.437Z,4.43
2023-05-05T19:53:40.119Z,4.78
2023-05-05T19:56:08.017Z,4.43
2023-05-05T19:58:54.043Z,4.65
2023-05-05T20:01:22.060Z,4.28
2023-05-05T20:03:51.571Z,3.65
2023-05-05T20:06:19.701Z,4.32
2023-05-05T20:08:49.259Z,4.40
2023-05-05T20:11:19.703Z,4.15
2023-05-05T20:13:48.477Z,3.90
2023-05-05T20:16:18.059Z,4.72
2023-05-05T20:18:46.248Z,4.65
2023-05-05T20:21:14.444Z,5.90
2023-05-05T20:23:43.105Z,5.20
2023-05-05T20:26:12.494Z,5.28
2023-05-05T20:28:43.284Z,5.53
2023-05-05T20:31:13.049Z,5.05
2023-05-05T20:33:41.015Z,6.15
2023-05-05T20:36:08.935Z,5.93
2023-05-05T20:38:36.617Z,5.40
2023-05-05T20:41:04.861Z,5.20
2023-05-05T20:43:33.918Z,5.55
2023-05-05T20:46:02.592Z,5.60
2023-05-05T20:48:30.384Z,5.47
2023-05-05T20:50:58.855Z,4.47
2023-05-05T20:53:26.544Z,4.40
2023-05-05T20:55:54.296Z,4.75
2023-05-05T20:58:22.031Z,6.10
2023-05-05T21:00:51.259Z,6.35
2023-05-05T21:03:18.974Z,5.60
2023-05-05T21:05:46.576Z,5.47
2023-05-05T21:08:14.181Z,5.97
2023-05-05T21:10:42.660Z,5.07
2023-05-05T21:13:10.287Z,5.57
2023-05-05T21:15:38.141Z,5.90
2023-05-05T21:18:07.441Z,5.55
2023-05-05T21:20:35.855Z,4.88
2023-05-05T21:23:03.389Z,6.55
2023-05-05T21:25:30.983Z,5.45
2023-05-05T21:27:58.631Z,5.35
2023-05-05T21:30:27.369Z,5.70
2023-05-05T21:32:54.989Z,6.15
2023-05-05T21:35:24.019Z,5.85
2023-05-05T21:37:51.615Z,5.60
2023-05-05T21:40:19.220Z,5.20
2023-05-05T21:42:46.808Z,5.47
2023-05-05T21:45:14.391Z,5.30
2023-05-05T21:47:42.210Z,5.45
2023-05-05T21:50:11.002Z,5.32
2023-05-05T21:52:40.941Z,5.32
2023-05-05T21:55:11.053Z,5.35
2023-05-05T21:57:38.700Z,4.93
2023-05-05T22:00:08.836Z,5.05
2023-05-05T22:02:36.841Z,4.78
2023-05-05T22:05:05.076Z,5.05
2023-05-05T22:07:33.106Z,5.47
2023-05-05T22:10:03.434Z,5.38
2023-05-05T22:12:31.030Z,5.28
2023-05-05T22:14:58.637Z,5.25
2023-05-05T22:17:26.338Z,5.50
2023-05-05T22:19:56.921Z,5.10
2023-05-05T22:22:25.025Z,5.82
2023-05-05T22:24:52.651Z,5.78
2023-05-05T22:27:21.804Z,5.07
2023-05-05T22:29:49.491Z,5.25
2023-05-05T22:32:17.093Z,5.50
2023-05-05T22:34:44.698Z,5.78
2023-05-05T22:37:12.504Z,5.60
2023-05-05T22:39:40.080Z,7.38
2023-05-05T22:42:07.724Z,6.53
2023-05-05T22:44:36.782Z,8.00
2023-05-05T22:47:04.815Z,5.88
2023-05-05T22:49:32.548Z,6.53
2023-05-05T22:52:00.268Z,6.15
2023-05-05T22:54:27.844Z,7.20
2023-05-05T22:56:55.731Z,7.35
2023-05-05T22:59:23.385Z,7.63
2023-05-05T23:01:52.297Z,7.70
2023-05-05T23:04:19.958Z,7.72
2023-05-05T23:06:47.578Z,7.47
2023-05-05T23:09:15.284Z,7.57
2023-05-05T23:11:42.879Z,8.35
2023-05-05T23:14:10.421Z,8.45
2023-05-05T23:16:38.039Z,9.50
2023-05-05T23:19:07.005Z,8.73
2023-05-05T23:21:41.838Z,8.80
2023-05-05T23:24:17.182Z,9.00
2023-05-05T23:26:44.848Z,11.98
2023-05-05T23:29:12.448Z,11.00
2023-05-05T23:31:40.064Z,10.93
2023-05-05T23:34:09.042Z,11.15
2023-05-05T23:36:36.702Z,10.35
2023-05-05T23:39:04.385Z,10.13
2023-05-05T23:41:32.004Z,10.80
2023-05-05T23:43:59.593Z,9.70
2023-05-05T23:46:27.257Z,9.93
2023-05-05T23:48:55.431Z,10.50
2023-05-05T23:51:24.400Z,9.88
2023-05-05T23:53:52.410Z,10.43
2023-05-05T23:56:20.023Z,11.20
2023-05-05T23:58:47.639Z,9.55
